Wetterdaten: Woche 28.04.14 - 04.05.14 (KW18)
Datum Zeit Temp. A. Feuchte A. Luftdruck Regen Wind Richtung Taupunkt Windchill Windben
28.04.2014 00:00 12,9 C 81 % 1006,5 hPa 0,0 l/m 3,1 km/h N 9,7 C 12,9 C 11,7 km/h
28.04.2014 01:00 12,3 C 82 % 1006,8 hPa 0,0 l/m 2,8 km/h N 9,3 C 12,3 C 10,1 km/h
28.04.2014 02:00 12,0 C 82 % 1006,8 hPa 0,0 l/m 2,0 km/h N 9,0 C 12,0 C 9,3 km/h
28.04.2014 03:00 11,8 C 82 % 1006,6 hPa 0,0 l/m 2,5 km/h N 8,9 C 11,8 C 9,7 km/h
28.04.2014 04:00 11,8 C 82 % 1006,5 hPa 0,0 l/m 2,8 km/h N 8,7 C 11,8 C 10,9 km/h
28.04.2014 05:00 11,6 C 81 % 1006,6 hPa 0,0 l/m 2,0 km/h N 8,5 C 11,6 C 9,3 km/h
28.04.2014 06:00 11,4 C 81 % 1006,8 hPa 0,0 l/m 0,8 km/h N 8,3 C 11,4 C 6,8 km/h
28.04.2014 07:00 11,7 C 81 % 1007,2 hPa 0,0 l/m 1,8 km/h N 8,5 C 11,7 C 12,1 km/h
28.04.2014 08:00 13,0 C 78 % 1007,4 hPa 0,0 l/m 4,8 km/h N 9,3 C 13,0 C 20,1 km/h
28.04.2014 09:00 14,5 C 74 % 1007,6 hPa 0,0 l/m 4,8 km/h N 10,0 C 14,5 C 20,9 km/h
28.04.2014 10:00 15,6 C 71 % 1007,5 hPa 0,0 l/m 7,2 km/h N 10,4 C 15,2 C 21,7 km/h
28.04.2014 11:00 16,9 C 68 % 1007,4 hPa 0,0 l/m 7,2 km/h N 10,8 C 16,5 C 21,7 km/h
28.04.2014 12:00 17,9 C 64 % 1007,1 hPa 0,0 l/m 4,8 km/h N 10,8 C 17,9 C 16,9 km/h
28.04.2014 13:00 18,7 C 61 % 1006,7 hPa 0,0 l/m 4,8 km/h N 11,0 C 18,7 C 16,1 km/h
28.04.2014 14:00 19,7 C 56 % 1006,2 hPa 0,0 l/m 3,2 km/h N 10,4 C 19,7 C 15,3 km/h
28.04.2014 15:00 20,4 C 51 % 1005,7 hPa 0,0 l/m 1,6 km/h N 9,9 C 20,4 C 9,7 km/h
28.04.2014 16:00 20,5 C 54 % 1005,3 hPa 0,0 l/m 2,4 km/h N 10,7 C 20,5 C 11,3 km/h
28.04.2014 17:00 19,6 C 63 % 1005,6 hPa 0,0 l/m 2,4 km/h N 12,4 C 19,6 C 16,9 km/h
28.04.2014 18:00 17,4 C 64 % 1006,0 hPa 0,0 l/m 1,8 km/h N 10,5 C 17,4 C 9,1 km/h
28.04.2014 19:00 16,9 C 65 % 1006,4 hPa 0,0 l/m 2,7 km/h N 10,3 C 16,9 C 12,1 km/h
28.04.2014 20:00 15,8 C 68 % 1006,7 hPa 0,0 l/m 2,6 km/h N 9,9 C 15,8 C 10,1 km/h
28.04.2014 21:00 15,0 C 71 % 1006,9 hPa 0,0 l/m 1,7 km/h N 9,7 C 15,0 C 6,8 km/h
28.04.2014 22:00 14,3 C 75 % 1007,1 hPa 0,0 l/m 1,2 km/h N 9,9 C 14,3 C 7,6 km/h
28.04.2014 23:00 14,2 C 76 % 1007,4 hPa 0,0 l/m 2,4 km/h N 10,1 C 14,2 C 9,6 km/h
29.04.2014 00:00 14,3 C 77 % 1007,6 hPa 0,0 l/m 5,6 km/h N 10,3 C 14,3 C 16,1 km/h
29.04.2014 01:00 14,4 C 77 % 1007,5 hPa 0,0 l/m 4,8 km/h N 10,4 C 14,4 C 15,3 km/h
29.04.2014 02:00 14,1 C 78 % 1007,2 hPa 0,0 l/m 4,0 km/h N 10,4 C 14,1 C 16,1 km/h
29.04.2014 03:00 13,4 C 81 % 1007,3 hPa 0,0 l/m 2,4 km/h N 10,1 C 13,4 C 12,1 km/h
29.04.2014 04:00 13,4 C 82 % 1007,0 hPa 0,0 l/m 4,0 km/h N 10,3 C 13,4 C 12,1 km/h
29.04.2014 05:00 13,6 C 81 % 1007,2 hPa 0,0 l/m 3,2 km/h N 10,4 C 13,6 C 12,9 km/h
29.04.2014 06:00 13,6 C 81 % 1007,3 hPa 0,0 l/m 4,0 km/h N 10,4 C 13,6 C 16,9 km/h
29.04.2014 07:00 13,6 C 82 % 1007,5 hPa 0,0 l/m 5,6 km/h N 10,6 C 13,7 C 18,5 km/h
29.04.2014 08:00 13,8 C 82 % 1008,1 hPa 0,0 l/m 5,6 km/h N 10,6 C 13,8 C 19,3 km/h
29.04.2014 09:00 14,2 C 81 % 1008,5 hPa 0,0 l/m 5,6 km/h N 10,9 C 14,2 C 17,7 km/h
29.04.2014 10:00 15,1 C 80 % 1008,7 hPa 0,0 l/m 6,4 km/h N 11,6 C 15,1 C 20,1 km/h
29.04.2014 11:00 16,3 C 76 % 1008,6 hPa 0,0 l/m 6,4 km/h N 12,1 C 16,3 C 18,5 km/h
29.04.2014 12:00 17,0 C 74 % 1008,5 hPa 0,0 l/m 4,8 km/h N 12,3 C 17,1 C 18,5 km/h
29.04.2014 13:00 16,0 C 81 % 1008,3 hPa 3,1 l/m 3,2 km/h N 12,7 C 16,0 C 14,5 km/h
29.04.2014 14:00 16,3 C 81 % 1007,9 hPa 4,9 l/m 6,4 km/h N 12,9 C 16,3 C 22,5 km/h
29.04.2014 15:00 16,8 C 80 % 1007,3 hPa 0,0 l/m 8,9 km/h N 13,3 C 15,8 C 24,1 km/h
29.04.2014 16:00 17,5 C 71 % 1007,1 hPa 0,0 l/m 12,9 km/h N 12,1 C 14,9 C 30,6 km/h
29.04.2014 17:00 16,4 C 73 % 1007,3 hPa 0,0 l/m 9,7 km/h N 11,5 C 14,8 C 28,2 km/h
29.04.2014 18:00 16,2 C 75 % 1007,4 hPa 0,0 l/m 8,8 km/h N 11,7 C 14,9 C 22,0 km/h
29.04.2014 19:00 15,9 C 74 % 1007,3 hPa 0,3 l/m 7,8 km/h N 11,3 C 15,1 C 22,1 km/h
29.04.2014 20:00 15,2 C 76 % 1007,7 hPa 0,0 l/m 9,3 km/h N 11,0 C 13,6 C 23,3 km/h
29.04.2014 21:00 14,9 C 77 % 1008,4 hPa 0,0 l/m 7,4 km/h N 10,9 C 14,3 C 20,9 km/h
29.04.2014 22:00 14,9 C 77 % 1008,5 hPa 0,0 l/m 8,2 km/h N 10,9 C 13,9 C 22,9 km/h
29.04.2014 23:00 14,7 C 76 % 1008,5 hPa 0,0 l/m 8,3 km/h N 10,5 C 13,6 C 23,7 km/h
30.04.2014 00:00 14,3 C 77 % 1008,5 hPa 0,0 l/m 8,0 km/h N 10,2 C 13,3 C 21,3 km/h
30.04.2014 01:00 14,2 C 75 % 1008,2 hPa 0,0 l/m 6,3 km/h N 9,9 C 14,1 C 18,1 km/h
30.04.2014 02:00 13,6 C 78 % 1008,0 hPa 0,0 l/m 3,5 km/h N 9,8 C 13,6 C 12,9 km/h
30.04.2014 03:00 13,4 C 79 % 1007,8 hPa 0,0 l/m 5,6 km/h N 9,7 C 13,2 C 16,9 km/h
30.04.2014 04:00 13,3 C 78 % 1007,8 hPa 0,0 l/m 5,5 km/h N 9,5 C 13,3 C 20,9 km/h
30.04.2014 05:00 13,2 C 78 % 1007,6 hPa 0,0 l/m 4,4 km/h N 9,4 C 13,2 C 16,1 km/h
30.04.2014 06:00 13,3 C 78 % 1007,9 hPa 0,0 l/m 3,3 km/h N 9,5 C 13,3 C 12,5 km/h
30.04.2014 07:00 14,3 C 75 % 1008,0 hPa 0,0 l/m 4,4 km/h N 10,0 C 14,2 C 15,3 km/h
30.04.2014 08:00 15,5 C 72 % 1008,2 hPa 0,0 l/m 5,9 km/h N 10,4 C 15,5 C 18,5 km/h
30.04.2014 09:00 16,9 C 70 % 1008,2 hPa 0,0 l/m 5,3 km/h N 11,3 C 16,9 C 15,3 km/h
30.04.2014 10:00 17,9 C 67 % 1008,1 hPa 0,0 l/m 4,5 km/h N 11,6 C 17,9 C 16,9 km/h
30.04.2014 11:00 19,1 C 61 % 1008,0 hPa 0,0 l/m 3,9 km/h N 11,3 C 19,1 C 11,3 km/h
30.04.2014 12:00 19,9 C 56 % 1007,5 hPa 0,0 l/m 2,8 km/h N 10,8 C 19,9 C 9,1 km/h
30.04.2014 13:00 20,9 C 47 % 1007,0 hPa 0,0 l/m 2,1 km/h N 9,2 C 20,9 C 8,6 km/h
30.04.2014 14:00 21,7 C 44 % 1006,5 hPa 0,0 l/m 2,3 km/h N 8,9 C 21,7 C 8,0 km/h
30.04.2014 15:00 21,5 C 46 % 1006,0 hPa 0,0 l/m 2,0 km/h N 9,5 C 21,5 C 10,1 km/h
30.04.2014 16:00 20,8 C 47 % 1005,6 hPa 0,0 l/m 2,4 km/h N 8,9 C 20,8 C 8,4 km/h
30.04.2014 17:00 21,1 C 45 % 1005,5 hPa 0,0 l/m 2,6 km/h N 8,7 C 21,1 C 10,5 km/h
30.04.2014 18:00 21,3 C 41 % 1005,3 hPa 0,0 l/m 3,0 km/h N 7,3 C 21,3 C 11,7 km/h
30.04.2014 19:00 20,7 C 41 % 1005,3 hPa 0,0 l/m 0,5 km/h N 6,8 C 20,7 C 3,2 km/h
30.04.2014 20:00 17,6 C 52 % 1005,9 hPa 0,0 l/m 0,2 km/h N 7,6 C 17,6 C 0,8 km/h
30.04.2014 21:00 14,6 C 64 % 1006,7 hPa 0,0 l/m 0,1 km/h N 7,8 C 14,6 C 0,8 km/h
30.04.2014 22:00 13,4 C 69 % 1007,1 hPa 0,0 l/m 0,2 km/h N 7,7 C 13,4 C 2,4 km/h
30.04.2014 23:00 12,9 C 73 % 1007,4 hPa 0,0 l/m 0,1 km/h N 8,2 C 12,9 C 1,2 km/h
01.05.2014 00:00 12,3 C 75 % 1007,7 hPa 0,0 l/m 0,2 km/h N 7,9 C 12,3 C 3,2 km/h
01.05.2014 01:00 11,8 C 77 % 1007,6 hPa 0,0 l/m 0,2 km/h N 7,8 C 11,8 C 2,8 km/h
01.05.2014 02:00 11,0 C 80 % 1007,7 hPa 0,0 l/m 0,3 km/h N 7,6 C 11,0 C 2,0 km/h
01.05.2014 03:00 10,1 C 81 % 1008,0 hPa 0,0 l/m 0,0 km/h N 7,0 C 10,1 C 0,0 km/h
01.05.2014 04:00 10,0 C 84 % 1008,2 hPa 0,0 l/m 0,3 km/h N 7,3 C 10,0 C 4,0 km/h
01.05.2014 05:00 11,9 C 79 % 1008,1 hPa 0,0 l/m 2,6 km/h N 8,3 C 11,9 C 14,1 km/h
01.05.2014 06:00 12,4 C 76 % 1008,6 hPa 0,0 l/m 3,3 km/h N 8,4 C 12,4 C 12,1 km/h
01.05.2014 07:00 13,2 C 75 % 1009,1 hPa 0,0 l/m 3,5 km/h N 8,9 C 13,1 C 14,9 km/h
01.05.2014 08:00 15,1 C 70 % 1009,7 hPa 0,0 l/m 6,4 km/h N 9,7 C 14,8 C 26,1 km/h
01.05.2014 09:00 15,7 C 69 % 1010,1 hPa 0,0 l/m 3,7 km/h N 10,1 C 15,7 C 17,3 km/h
01.05.2014 10:00 16,5 C 67 % 1010,1 hPa 0,0 l/m 5,1 km/h N 10,4 C 16,5 C 19,7 km/h
01.05.2014 11:00 18,2 C 62 % 1010,2 hPa 0,0 l/m 8,4 km/h N 10,8 C 17,2 C 24,1 km/h
01.05.2014 12:00 18,9 C 60 % 1010,1 hPa 0,0 l/m 8,7 km/h N 10,9 C 17,9 C 24,9 km/h
01.05.2014 13:00 20,0 C 57 % 1009,8 hPa 0,0 l/m 6,8 km/h N 11,2 C 19,7 C 18,5 km/h
01.05.2014 14:00 20,7 C 46 % 1009,1 hPa 0,0 l/m 3,9 km/h N 8,7 C 20,7 C 12,1 km/h
01.05.2014 15:00 20,7 C 44 % 1008,6 hPa 0,0 l/m 2,9 km/h N 8,0 C 20,7 C 10,9 km/h
01.05.2014 16:00 20,7 C 49 % 1008,2 hPa 0,0 l/m 4,2 km/h N 9,6 C 20,7 C 12,9 km/h
01.05.2014 17:00 20,3 C 50 % 1007,9 hPa 0,0 l/m 5,4 km/h N 9,4 C 20,3 C 15,7 km/h
01.05.2014 18:00 20,0 C 52 % 1007,7 hPa 0,0 l/m 3,9 km/h N 9,7 C 20,0 C 12,5 km/h
01.05.2014 19:00 19,6 C 53 % 1007,6 hPa 0,0 l/m 0,8 km/h N 9,7 C 19,6 C 5,2 km/h
01.05.2014 20:00 17,0 C 59 % 1008,0 hPa 0,0 l/m 0,1 km/h N 9,0 C 17,0 C 1,6 km/h
01.05.2014 21:00 14,8 C 67 % 1008,4 hPa 0,0 l/m 0,5 km/h N 8,7 C 14,8 C 4,4 km/h
01.05.2014 22:00 13,6 C 72 % 1008,6 hPa 0,0 l/m 0,3 km/h N 8,6 C 13,6 C 2,0 km/h
01.05.2014 23:00 12,2 C 76 % 1008,6 hPa 0,0 l/m 0,0 km/h N 8,1 C 12,2 C 0,4 km/h
02.05.2014 00:00 11,2 C 79 % 1008,6 hPa 0,0 l/m 0,3 km/h N 7,7 C 11,2 C 4,4 km/h
02.05.2014 01:00 10,2 C 82 % 1008,4 hPa 0,0 l/m 0,3 km/h N 7,2 C 10,2 C 4,4 km/h
02.05.2014 02:00 9,8 C 83 % 1008,2 hPa 0,0 l/m 0,2 km/h N 7,0 C 9,8 C 2,4 km/h
02.05.2014 03:00 9,4 C 83 % 1007,9 hPa 0,0 l/m 0,2 km/h N 6,7 C 9,4 C 3,6 km/h
02.05.2014 04:00 8,9 C 84 % 1007,8 hPa 0,0 l/m 0,2 km/h N 6,3 C 8,9 C 2,0 km/h
02.05.2014 05:00 8,5 C 84 % 1007,8 hPa 0,0 l/m 0,0 km/h N 6,0 C 8,5 C 0,8 km/h
02.05.2014 06:00 8,4 C 84 % 1008,1 hPa 0,0 l/m 0,7 km/h N 5,9 C 8,4 C 4,0 km/h
02.05.2014 07:00 9,9 C 84 % 1008,4 hPa 0,0 l/m 0,2 km/h N 7,4 C 9,9 C 2,4 km/h
02.05.2014 08:00 13,3 C 79 % 1008,7 hPa 0,0 l/m 0,8 km/h N 9,7 C 13,3 C 5,6 km/h
02.05.2014 09:00 16,6 C 69 % 1008,5 hPa 0,0 l/m 1,2 km/h N 10,9 C 16,6 C 6,0 km/h
02.05.2014 10:00 19,1 C 60 % 1008,5 hPa 0,0 l/m 1,0 km/h N 11,2 C 19,1 C 6,4 km/h
02.05.2014 11:00 20,6 C 57 % 1008,6 hPa 0,0 l/m 1,7 km/h N 11,6 C 20,6 C 7,6 km/h
02.05.2014 12:00 21,9 C 55 % 1008,3 hPa 0,5 l/m 2,0 km/h N 12,4 C 21,9 C 9,7 km/h
02.05.2014 13:00 22,2 C 51 % 1007,9 hPa 0,0 l/m 2,9 km/h N 11,6 C 22,2 C 11,3 km/h
02.05.2014 14:00 22,8 C 43 % 1007,6 hPa 0,0 l/m 2,2 km/h N 9,5 C 22,8 C 10,4 km/h
02.05.2014 15:00 21,8 C 44 % 1007,2 hPa 0,0 l/m 2,0 km/h N 8,9 C 21,8 C 10,1 km/h
02.05.2014 16:00 21,2 C 47 % 1007,0 hPa 0,0 l/m 1,3 km/h N 9,5 C 21,2 C 7,6 km/h
02.05.2014 17:00 21,3 C 46 % 1006,9 hPa 0,0 l/m 0,4 km/h N 9,2 C 21,3 C 3,6 km/h
02.05.2014 18:00 21,8 C 46 % 1006,9 hPa 0,0 l/m 0,1 km/h N 9,5 C 21,8 C 2,4 km/h
02.05.2014 19:00 20,7 C 50 % 1007,4 hPa 0,0 l/m 1,0 km/h N 9,8 C 20,7 C 5,6 km/h
02.05.2014 20:00 17,5 C 62 % 1008,6 hPa 6,5 l/m 3,5 km/h N 10,0 C 17,5 C 12,9 km/h
02.05.2014 21:00 13,7 C 81 % 1009,9 hPa 13,8 l/m 1,6 km/h N 10,4 C 13,7 C 8,9 km/h
02.05.2014 22:00 13,2 C 83 % 1010,0 hPa 0,3 l/m 0,4 km/h N 10,4 C 13,2 C 4,8 km/h
02.05.2014 23:00 12,9 C 83 % 1010,5 hPa 0,0 l/m 0,4 km/h N 10,0 C 12,9 C 3,6 km/h
03.05.2014 00:00 12,5 C 83 % 1010,6 hPa 0,0 l/m 1,4 km/h N 9,6 C 12,5 C 6,0 km/h
03.05.2014 01:00 12,4 C 83 % 1010,2 hPa 0,0 l/m 0,8 km/h N 9,6 C 12,4 C 5,6 km/h
03.05.2014 02:00 12,2 C 84 % 1010,4 hPa 0,0 l/m 1,0 km/h N 9,5 C 12,2 C 6,4 km/h
03.05.2014 03:00 12,0 C 84 % 1010,6 hPa 0,0 l/m 2,1 km/h N 9,4 C 12,0 C 7,6 km/h
03.05.2014 04:00 11,8 C 84 % 1010,9 hPa 0,0 l/m 1,5 km/h N 9,2 C 11,8 C 7,2 km/h
03.05.2014 05:00 11,4 C 84 % 1011,0 hPa 0,0 l/m 3,5 km/h N 8,8 C 11,4 C 14,1 km/h
03.05.2014 06:00 10,4 C 84 % 1011,9 hPa 0,0 l/m 6,3 km/h N 7,8 C 10,4 C 20,1 km/h
03.05.2014 07:00 10,0 C 84 % 1012,4 hPa 0,0 l/m 5,4 km/h N 7,4 C 10,0 C 17,7 km/h
03.05.2014 08:00 9,8 C 84 % 1012,8 hPa 0,0 l/m 4,9 km/h N 7,3 C 9,8 C 16,9 km/h
03.05.2014 09:00 9,8 C 84 % 1013,1 hPa 0,0 l/m 7,0 km/h N 7,2 C 9,4 C 18,5 km/h
03.05.2014 10:00 9,3 C 84 % 1013,7 hPa 0,0 l/m 7,1 km/h N 6,7 C 8,8 C 19,7 km/h
03.05.2014 11:00 8,9 C 84 % 1014,3 hPa 0,0 l/m 7,3 km/h N 6,4 C 8,3 C 20,5 km/h
03.05.2014 12:00 9,1 C 84 % 1014,4 hPa 0,0 l/m 6,0 km/h N 6,5 C 9,0 C 18,9 km/h
03.05.2014 13:00 8,9 C 84 % 1014,6 hPa 0,3 l/m 6,4 km/h N 6,4 C 8,8 C 18,9 km/h
03.05.2014 14:00 8,9 C 84 % 1014,6 hPa 0,0 l/m 10,7 km/h N 6,3 C 5,9 C 23,7 km/h
03.05.2014 15:00 8,8 C 83 % 1014,7 hPa 0,0 l/m 11,0 km/h N 5,9 C 5,6 C 26,1 km/h
03.05.2014 16:00 8,6 C 82 % 1014,9 hPa 0,0 l/m 10,2 km/h N 5,7 C 6,0 C 25,3 km/h
03.05.2014 17:00 8,7 C 80 % 1015,0 hPa 0,0 l/m 8,6 km/h N 5,4 C 7,2 C 23,3 km/h
03.05.2014 18:00 8,7 C 77 % 1015,2 hPa 0,0 l/m 10,3 km/h N 4,9 C 6,0 C 27,4 km/h
03.05.2014 19:00 8,4 C 76 % 1016,1 hPa 0,0 l/m 10,0 km/h N 4,4 C 5,9 C 29,0 km/h
03.05.2014 20:00 7,9 C 76 % 1016,4 hPa 0,3 l/m 12,1 km/h N 3,9 C 4,1 C 31,0 km/h
03.05.2014 21:00 7,6 C 76 % 1017,1 hPa 0,0 l/m 10,9 km/h N 3,6 C 4,4 C 31,4 km/h
03.05.2014 22:00 7,4 C 76 % 1017,3 hPa 0,0 l/m 10,5 km/h N 3,5 C 4,5 C 29,0 km/h
03.05.2014 23:00 7,3 C 76 % 1017,4 hPa 0,0 l/m 11,4 km/h N 3,4 C 3,8 C 31,0 km/h
04.05.2014 00:00 7,2 C 76 % 1017,7 hPa 0,0 l/m 9,8 km/h N 3,2 C 4,7 C 24,5 km/h
04.05.2014 01:00 6,8 C 76 % 1017,5 hPa 0,0 l/m 8,1 km/h N 2,9 C 5,4 C 23,3 km/h
04.05.2014 02:00 6,7 C 76 % 1017,1 hPa 0,0 l/m 10,3 km/h N 2,7 C 3,8 C 27,8 km/h
04.05.2014 03:00 6,3 C 76 % 1017,0 hPa 0,0 l/m 10,5 km/h N 2,3 C 3,1 C 25,8 km/h
04.05.2014 04:00 6,1 C 75 % 1017,0 hPa 0,0 l/m 10,4 km/h N 1,9 C 3,0 C 27,0 km/h
04.05.2014 05:00 5,9 C 74 % 1017,1 hPa 0,0 l/m 11,5 km/h N 1,6 C 2,1 C 30,1 km/h
04.05.2014 06:00 6,0 C 73 % 1017,5 hPa 0,0 l/m 11,4 km/h N 1,4 C 2,3 C 29,4 km/h
04.05.2014 07:00 6,5 C 71 % 1018,0 hPa 0,0 l/m 11,2 km/h N 1,7 C 3,0 C 29,4 km/h
04.05.2014 08:00 7,9 C 68 % 1018,1 hPa 0,0 l/m 11,9 km/h N 2,4 C 4,2 C 31,8 km/h
04.05.2014 09:00 9,8 C 59 % 1017,6 hPa 0,0 l/m 13,4 km/h N 2,1 C 5,6 C 37,0 km/h
04.05.2014 10:00 11,1 C 48 % 1017,2 hPa 0,0 l/m 15,7 km/h N 0,6 C 6,2 C 38,2 km/h
04.05.2014 11:00 12,1 C 45 % 1017,0 hPa 0,0 l/m 15,4 km/h N 0,7 C 7,6 C 33,8 km/h
04.05.2014 12:00 13,3 C 46 % 1016,7 hPa 0,0 l/m 15,6 km/h N 2,0 C 9,0 C 38,6 km/h
04.05.2014 13:00 14,2 C 46 % 1016,3 hPa 0,0 l/m 14,4 km/h N 2,6 C 10,4 C 36,2 km/h
04.05.2014 14:00 14,4 C 43 % 1016,0 hPa 0,0 l/m 14,1 km/h N 1,8 C 10,8 C 33,0 km/h
04.05.2014 15:00 14,6 C 41 % 1015,7 hPa 0,0 l/m 15,6 km/h N 1,5 C 10,5 C 34,6 km/h
04.05.2014 16:00 14,6 C 42 % 1015,8 hPa 0,0 l/m 14,0 km/h N 1,9 C 11,0 C 34,2 km/h
04.05.2014 17:00 14,7 C 44 % 1016,0 hPa 0,0 l/m 12,7 km/h N 2,7 C 11,6 C 31,0 km/h
04.05.2014 18:00 14,1 C 45 % 1016,3 hPa 0,0 l/m 12,4 km/h N 2,2 C 11,1 C 27,8 km/h
04.05.2014 19:00 12,8 C 47 % 1016,8 hPa 0,0 l/m 9,5 km/h N 1,8 C 11,0 C 26,5 km/h
04.05.2014 20:00 11,6 C 51 % 1017,3 hPa 0,0 l/m 5,6 km/h N 1,8 C 11,4 C 18,9 km/h
04.05.2014 21:00 10,5 C 55 % 1017,8 hPa 0,0 l/m 3,9 km/h N 1,8 C 10,5 C 14,9 km/h
04.05.2014 22:00 9,8 C 59 % 1018,2 hPa 0,0 l/m 7,3 km/h N 2,1 C 9,1 C 21,3 km/h
04.05.2014 23:00 8,8 C 60 % 1018,8 hPa 0,0 l/m 8,2 km/h N 1,4 C 7,4 C 24,5 km/h
Min-Datum _ 04.05.14 30.04.14 28.04.14 - 30.04.14 - 04.05.14 04.05.14 30.04.14
_ Min-Zeit 05:30 18:45 16:30 - 19:15 - 10:45 05:45 19:45
Minimum _ 5,8 C 38 % 1005,2 hPa - 0,0 km/h - -0,1 C 1,6 C 0,0 km/h
Max-Datum _ 02.05.14 03.05.14 04.05.14 02.05.14 04.05.14 - 29.04.14 02.05.14 04.05.14
_ Max-Zeit 14:45 13:15 23:45 21:00 11:15 - 15:00 14:45 12:30
Maximum _ 23,3 C 85 % 1019,0 hPa 13,8 l/m 17,3 km/h
N
- 13,5 C 23,3 C 46,7 km/h
N
Durchschnitt _ 14,1 C 69 % 1009,9 hPa #29,9 l/m 5,0 km/h N 8,2 C 13,4 C 15,6 km/h